Time;durP1;ratioP1;P1;durP2;ratioP2;P2;SDS_P1;SDS_P2;PMS_P1;PMS_P2;Temp;Humidity;BMP_temperature;BMP_pressure;BME280_temperature;BME280_humidity;BME280_pressure;Samples;Min_cycle;Max_cycle;Signal;HPM_P1;HPM_P2
2024/02/28 00:01:29;;;;;;;;;;;;;;;6.79;63.42;100034.54;105701;1259;74014;-64
2024/02/28 00:03:56;;;;;;;;;;;;;;;6.75;63.80;100035.20;105615;1261;67644;-65
2024/02/28 00:06:24;;;;;;;;;;;;;;;6.65;64.54;100034.93;105673;1259;71435;-69
2024/02/28 00:08:54;;;;;;;;;;;;;;;6.78;64.07;100033.53;105573;1259;60476;-67
2024/02/28 00:11:21;;;;;;;;;;;;;;;6.78;64.08;100035.39;105643;1259;60486;-66
2024/02/28 00:13:49;;;;;;;;;;;;;;;6.74;64.24;100035.87;105731;1253;73951;-65
2024/02/28 00:16:17;;;;;;;;;;;;;;;6.76;64.11;100035.77;105723;1257;67900;-63
2024/02/28 00:18:44;;;;;;;;;;;;;;;6.83;63.80;100032.14;105707;1254;72793;-67
2024/02/28 00:21:12;;;;;;;;;;;;;;;6.68;64.20;100029.74;105642;1254;61080;-66
2024/02/28 00:23:40;;;;;;;;;;;;;;;6.69;64.31;100027.04;105658;1257;60571;-67
2024/02/28 00:26:07;;;;;;;;;;;;;;;6.70;64.22;100027.39;105544;1254;73621;-66
2024/02/28 00:28:36;;;;;;;;;;;;;;;6.76;64.11;100023.44;105756;1254;68626;-69
2024/02/28 00:31:03;;;;;;;;;;;;;;;6.73;64.18;100020.67;105608;1262;72757;-70
2024/02/28 00:33:31;;;;;;;;;;;;;;;6.63;64.44;100018.16;105732;1254;61745;-73
2024/02/28 00:35:59;;;;;;;;;;;;;;;6.59;64.62;100022.47;105764;1254;60540;-72
2024/02/28 00:38:27;;;;;;;;;;;;;;;6.52;65.05;100020.45;105602;1257;73022;-67
2024/02/28 00:40:55;;;;;;;;;;;;;;;6.67;64.70;100023.51;105692;1254;67999;-66
2024/02/28 00:43:23;;;;;;;;;;;;;;;6.80;63.98;100022.27;105645;1259;73026;-67
2024/02/28 00:45:50;;;;;;;;;;;;;;;6.74;64.11;100016.90;105747;1253;60540;-68
2024/02/28 00:48:18;;;;;;;;;;;;;;;6.61;64.66;100016.70;105834;1259;60498;-72
2024/02/28 00:50:46;;;;;;;;;;;;;;;6.72;64.53;100016.54;105731;1257;73969;-69
2024/02/28 00:53:13;;;;;;;;;;;;;;;6.80;64.00;100011.56;105819;1253;68605;-67
2024/02/28 00:55:41;;;;;;;;;;;;;;;6.81;63.85;100012.24;106961;1253;70517;-67
2024/02/28 00:58:09;;;;;;;;;;;;;;;6.67;64.47;100012.31;107410;1252;60430;-67
2024/02/28 01:00:36;;;;;;;;;;;;;;;6.80;64.30;100012.84;105741;1254;60860;-69
2024/02/28 01:03:05;;;;;;;;;;;;;;;6.87;63.70;100013.52;105721;1254;73887;-68
2024/02/28 01:05:32;;;;;;;;;;;;;;;6.93;63.51;100010.74;105609;1254;69483;-73
2024/02/28 01:08:00;;;;;;;;;;;;;;;6.83;63.78;100011.28;105737;1254;72838;-73
2024/02/28 01:10:28;;;;;;;;;;;;;;;6.96;63.39;100009.12;105701;1253;60482;-67
2024/02/28 01:12:55;;;;;;;;;;;;;;;7.01;62.95;100008.51;105681;1252;60345;-67
2024/02/28 01:15:23;;;;;;;;;;;;;;;6.90;63.28;100003.89;105643;1254;73996;-70
2024/02/28 01:17:51;;;;;;;;;;;;;;;7.00;63.03;100004.98;105793;1254;68894;-67
2024/02/28 01:20:18;;;;;;;;;;;;;;;6.88;63.34;99999.58;105752;1254;73295;-68
2024/02/28 01:22:46;;;;;;;;;;;;;;;6.85;63.48;99996.58;105695;1254;60977;-69
2024/02/28 01:25:13;;;;;;;;;;;;;;;6.95;63.11;99996.65;105741;1254;60514;-68
2024/02/28 01:27:41;;;;;;;;;;;;;;;6.94;63.13;99994.81;105696;1254;73915;-69
2024/02/28 01:30:09;;;;;;;;;;;;;;;6.90;63.19;99997.52;105648;1254;68466;-68
2024/02/28 01:32:37;;;;;;;;;;;;;;;6.84;63.46;99991.23;105893;1254;72840;-68
2024/02/28 01:35:05;;;;;;;;;;;;;;;6.87;63.22;99989.53;105724;1254;60732;-69
2024/02/28 01:37:32;;;;;;;;;;;;;;;6.95;63.02;99990.24;105847;1254;60536;-66
2024/02/28 01:40:00;;;;;;;;;;;;;;;7.05;62.39;99995.73;105757;1252;72867;-70
2024/02/28 01:42:27;;;;;;;;;;;;;;;6.99;62.46;99993.00;105688;1257;67872;-67
2024/02/28 01:44:55;;;;;;;;;;;;;;;6.91;62.65;99996.16;105629;1254;72830;-67
2024/02/28 01:47:22;;;;;;;;;;;;;;;6.84;62.78;99991.45;105726;1254;60897;-68
2024/02/28 01:49:50;;;;;;;;;;;;;;;6.61;63.64;99989.17;105687;1262;61318;-65
2024/02/28 01:52:18;;;;;;;;;;;;;;;6.71;63.41;99990.08;105743;1254;72852;-67
2024/02/28 01:54:45;;;;;;;;;;;;;;;6.76;63.10;99985.66;105779;1258;67644;-71
2024/02/28 01:57:13;;;;;;;;;;;;;;;6.74;63.04;99981.40;105900;1254;72818;-67
2024/02/28 01:59:40;;;;;;;;;;;;;;;6.76;62.91;99984.05;105754;1253;60425;-67
2024/02/28 02:02:08;;;;;;;;;;;;;;;6.61;63.32;99986.79;105594;1253;59419;-68
2024/02/28 02:04:36;;;;;;;;;;;;;;;6.63;63.24;99981.89;105776;1258;74123;-68
2024/02/28 02:07:04;;;;;;;;;;;;;;;6.68;63.10;99980.67;105766;1254;68827;-68
2024/02/28 02:09:31;;;;;;;;;;;;;;;6.59;63.35;99983.07;105752;1254;73305;-67
2024/02/28 02:11:59;;;;;;;;;;;;;;;6.51;63.56;99984.08;105759;1258;60505;-68
2024/02/28 02:14:26;;;;;;;;;;;;;;;6.44;64.16;99985.27;105633;1254;60338;-70
2024/02/28 02:16:54;;;;;;;;;;;;;;;6.48;63.99;99989.19;105617;1254;74033;-70
2024/02/28 02:19:22;;;;;;;;;;;;;;;6.59;63.65;99990.41;105779;1254;69484;-72
2024/02/28 02:21:53;;;;;;;;;;;;;;;6.59;63.34;99991.25;105613;1257;71491;-68
2024/02/28 02:24:21;;;;;;;;;;;;;;;6.59;63.45;99990.98;105699;1254;61137;-70
2024/02/28 02:26:52;;;;;;;;;;;;;;;6.62;63.34;99994.08;105602;1256;60686;-69
2024/02/28 02:29:19;;;;;;;;;;;;;;;6.69;62.91;99996.79;105622;1257;74552;-66
2024/02/28 02:31:47;;;;;;;;;;;;;;;6.68;62.81;99997.58;105543;1257;68625;-73
2024/02/28 02:34:14;;;;;;;;;;;;;;;6.62;62.95;99997.00;105626;1262;71480;-67
2024/02/28 02:36:42;;;;;;;;;;;;;;;6.56;63.11;99994.09;105590;1257;60911;-66
2024/02/28 02:39:09;;;;;;;;;;;;;;;6.56;63.03;99991.80;105602;1257;60553;-66
2024/02/28 02:41:37;;;;;;;;;;;;;;;6.59;62.87;99995.71;105593;1257;73903;-69
2024/02/28 02:44:05;;;;;;;;;;;;;;;6.46;63.18;99993.70;105400;1257;68871;-69
2024/02/28 02:46:32;;;;;;;;;;;;;;;6.36;63.60;99994.05;105303;1257;73122;-68
2024/02/28 02:49:00;;;;;;;;;;;;;;;6.36;63.54;99999.73;105398;1262;60649;-69
2024/02/28 02:51:28;;;;;;;;;;;;;;;6.37;63.53;99994.59;105641;1256;60531;-68
2024/02/28 02:53:55;;;;;;;;;;;;;;;6.35;63.57;100000.48;105619;1257;72217;-70
2024/02/28 02:56:23;;;;;;;;;;;;;;;6.34;63.63;100004.13;105212;1260;68975;-67
2024/02/28 02:58:50;;;;;;;;;;;;;;;6.39;63.35;100007.63;105126;1263;72869;-72
2024/02/28 03:01:19;;;;;;;;;;;;;;;6.31;63.62;100007.10;105268;1259;61741;-66
2024/02/28 03:03:47;;;;;;;;;;;;;;;6.35;63.53;100012.65;105173;1262;61969;-68
2024/02/28 03:06:15;;;;;;;;;;;;;;;6.31;63.62;100007.77;105302;1257;74210;-66
2024/02/28 03:08:43;;;;;;;;;;;;;;;6.26;63.85;100009.35;105373;1257;67346;-70
2024/02/28 03:11:11;;;;;;;;;;;;;;;6.17;64.17;100004.60;105245;1260;71812;-69
2024/02/28 03:13:39;;;;;;;;;;;;;;;6.29;63.66;100007.11;105148;1263;60544;-69
2024/02/28 03:16:06;;;;;;;;;;;;;;;6.27;63.59;100003.60;105124;1265;60773;-67
2024/02/28 03:18:34;;;;;;;;;;;;;;;6.31;63.38;100006.69;105374;1257;73666;-67
2024/02/28 03:21:02;;;;;;;;;;;;;;;6.33;63.25;100006.76;105650;1257;69479;-69
2024/02/28 03:23:30;;;;;;;;;;;;;;;6.25;63.53;100000.90;105576;1262;72732;-69
2024/02/28 03:25:57;;;;;;;;;;;;;;;6.28;63.47;100000.97;105571;1257;61331;-70
2024/02/28 03:28:25;;;;;;;;;;;;;;;6.28;63.37;100001.05;105788;1253;60533;-68
2024/02/28 03:30:53;;;;;;;;;;;;;;;6.25;63.42;99999.50;105907;1256;74503;-66
2024/02/28 03:33:21;;;;;;;;;;;;;;;6.20;63.48;99999.55;105820;1258;67294;-67
2024/02/28 03:35:49;;;;;;;;;;;;;;;6.10;63.95;99997.99;105676;1257;72796;-68
2024/02/28 03:38:17;;;;;;;;;;;;;;;6.13;63.72;99999.52;105673;1262;60405;-68
2024/02/28 03:40:44;;;;;;;;;;;;;;;6.26;63.23;99998.97;105794;1254;60561;-65
2024/02/28 03:43:13;;;;;;;;;;;;;;;6.43;62.59;99996.32;105801;1258;72894;-66
2024/02/28 03:45:41;;;;;;;;;;;;;;;6.51;62.12;99993.06;105810;1258;67657;-72
2024/02/28 03:48:08;;;;;;;;;;;;;;;6.42;62.36;99990.70;105626;1254;73330;-66
2024/02/28 03:50:37;;;;;;;;;;;;;;;6.38;62.52;99993.85;105612;1258;60412;-66
2024/02/28 03:53:05;;;;;;;;;;;;;;;6.30;62.80;99988.90;105826;1254;60536;-69
2024/02/28 03:55:32;;;;;;;;;;;;;;;6.33;62.71;99987.93;105784;1259;74324;-66
2024/02/28 03:58:00;;;;;;;;;;;;;;;6.23;63.05;99985.41;105865;1256;67863;-64
2024/02/28 04:00:28;;;;;;;;;;;;;;;6.18;63.22;99984.20;105491;1260;72743;-64
2024/02/28 04:02:56;;;;;;;;;;;;;;;6.17;63.30;99985.04;105839;1256;60491;-64
2024/02/28 04:05:23;;;;;;;;;;;;;;;6.16;63.30;99985.50;105788;1254;60498;-67
2024/02/28 04:07:51;;;;;;;;;;;;;;;6.10;63.51;99988.23;105813;1254;74083;-73
2024/02/28 04:10:18;;;;;;;;;;;;;;;6.01;63.89;99984.77;105863;1256;67327;-68
2024/02/28 04:12:46;;;;;;;;;;;;;;;6.02;64.05;99983.77;105891;1254;71647;-65
2024/02/28 04:15:14;;;;;;;;;;;;;;;5.98;64.22;99983.66;105789;1254;60976;-70
2024/02/28 04:17:42;;;;;;;;;;;;;;;5.91;64.46;99986.11;105835;1254;60341;-72
2024/02/28 04:20:11;;;;;;;;;;;;;;;5.91;64.57;99986.25;105636;1254;72875;-65
2024/02/28 04:22:39;;;;;;;;;;;;;;;5.98;64.24;99981.98;105559;1255;67703;-70
2024/02/28 04:25:07;;;;;;;;;;;;;;;5.93;64.52;99980.10;105768;1255;71515;-65
2024/02/28 04:27:36;;;;;;;;;;;;;;;6.13;63.87;99982.52;105811;1254;60920;-67
2024/02/28 04:30:04;;;;;;;;;;;;;;;6.13;63.56;99982.19;105580;1262;60688;-68
2024/02/28 04:32:32;;;;;;;;;;;;;;;6.03;64.05;99982.54;105767;1254;73080;-71
2024/02/28 04:35:00;;;;;;;;;;;;;;;5.99;64.09;99981.77;105788;1254;69027;-69
2024/02/28 04:37:27;;;;;;;;;;;;;;;5.98;64.51;99985.13;105840;1254;73001;-67
2024/02/28 04:39:55;;;;;;;;;;;;;;;6.17;63.78;99982.74;105621;1254;61158;-67
2024/02/28 04:42:23;;;;;;;;;;;;;;;6.18;63.66;99983.85;105755;1253;60425;-67
2024/02/28 04:44:50;;;;;;;;;;;;;;;6.12;63.73;99985.31;105760;1254;73305;-69
2024/02/28 04:47:18;;;;;;;;;;;;;;;6.19;63.44;99992.04;105629;1254;69269;-70
2024/02/28 04:49:55;;;;;;;;;;;;;;;6.20;63.41;99991.70;105646;1254;71888;-68
2024/02/28 04:52:24;;;;;;;;;;;;;;;6.21;63.27;99993.14;105636;1254;61290;-70
2024/02/28 04:54:53;;;;;;;;;;;;;;;6.18;63.44;99993.35;105858;1254;60486;-74
2024/02/28 04:57:21;;;;;;;;;;;;;;;6.12;63.72;99996.23;105886;1254;74016;-69
2024/02/28 04:59:49;;;;;;;;;;;;;;;6.33;62.75;99997.73;105854;1254;69460;-68
2024/02/28 05:02:16;;;;;;;;;;;;;;;6.32;62.59;99998.36;105870;1254;72787;-69
2024/02/28 05:04:44;;;;;;;;;;;;;;;6.26;62.62;100001.60;105840;1254;61097;-69
2024/02/28 05:07:13;;;;;;;;;;;;;;;6.33;62.52;100001.51;105861;1254;60518;-69
2024/02/28 05:09:40;;;;;;;;;;;;;;;6.55;61.67;100004.23;105823;1254;72879;-71
2024/02/28 05:12:08;;;;;;;;;;;;;;;6.55;61.27;100002.48;105710;1254;69329;-70
2024/02/28 05:14:36;;;;;;;;;;;;;;;6.58;61.17;100005.61;106730;1255;72774;-70
2024/02/28 05:17:03;;;;;;;;;;;;;;;6.66;60.73;100008.50;107470;1254;60354;-70
2024/02/28 05:19:31;;;;;;;;;;;;;;;6.54;61.04;100010.77;106779;1254;60405;-70
2024/02/28 05:22:00;;;;;;;;;;;;;;;6.34;61.76;100015.21;106394;1256;74146;-70
2024/02/28 05:24:29;;;;;;;;;;;;;;;6.49;61.20;100014.30;105799;1259;67367;-73
2024/02/28 05:26:56;;;;;;;;;;;;;;;6.54;61.28;100018.19;105809;1254;71792;-69
2024/02/28 05:29:26;;;;;;;;;;;;;;;6.63;60.78;100015.71;105631;1258;60631;-69
2024/02/28 05:31:53;;;;;;;;;;;;;;;6.66;60.51;100014.90;105643;1254;60491;-69
2024/02/28 05:34:22;;;;;;;;;;;;;;;6.56;60.72;100023.48;105651;1256;73883;-69
2024/02/28 05:36:50;;;;;;;;;;;;;;;6.81;59.96;100025.89;105600;1260;67758;-69
2024/02/28 05:39:18;;;;;;;;;;;;;;;6.75;59.68;100023.58;105636;1260;71437;-70
2024/02/28 05:41:46;;;;;;;;;;;;;;;6.85;59.33;100022.02;109356;1254;62162;-70
2024/02/28 05:44:14;;;;;;;;;;;;;;;6.97;58.88;100026.77;109272;1257;59870;-70
2024/02/28 05:46:41;;;;;;;;;;;;;;;7.17;58.29;100024.09;109332;1254;74043;-71
2024/02/28 05:49:09;;;;;;;;;;;;;;;7.07;58.19;100021.67;109101;1260;68430;-71
2024/02/28 05:51:37;;;;;;;;;;;;;;;7.10;57.95;100024.48;109022;1259;72794;-71
2024/02/28 05:54:04;;;;;;;;;;;;;;;7.21;57.51;100033.13;109069;1259;59955;-71
2024/02/28 05:56:32;;;;;;;;;;;;;;;7.28;57.18;100031.38;109002;1259;59155;-70
2024/02/28 05:58:59;;;;;;;;;;;;;;;7.61;56.31;100038.52;109042;1258;73907;-70
2024/02/28 06:01:27;;;;;;;;;;;;;;;7.57;55.99;100039.13;109191;1257;68523;-70
2024/02/28 06:03:54;;;;;;;;;;;;;;;7.69;55.52;100044.14;109211;1256;71466;-71
2024/02/28 06:06:22;;;;;;;;;;;;;;;7.77;55.08;100044.80;109170;1256;60768;-71
2024/02/28 06:08:50;;;;;;;;;;;;;;;7.85;54.85;100049.64;109058;1257;58639;-71
2024/02/28 06:11:17;;;;;;;;;;;;;;;8.10;54.05;100047.08;109279;1257;72721;-70
2024/02/28 06:13:45;;;;;;;;;;;;;;;8.13;53.55;100050.23;109236;1260;68453;-71
2024/02/28 06:16:16;;;;;;;;;;;;;;;8.34;53.00;100051.05;109214;1257;73184;-71
2024/02/28 06:18:43;;;;;;;;;;;;;;;8.45;52.21;100052.09;109181;1256;60988;-72
2024/02/28 06:21:12;;;;;;;;;;;;;;;8.33;52.42;100050.52;109500;1254;58619;-72
2024/02/28 06:23:39;;;;;;;;;;;;;;;8.51;51.76;100055.15;109315;1252;71720;-71
2024/02/28 06:26:14;;;;;;;;;;;;;;;8.53;51.33;100055.70;109263;1257;67993;-71
2024/02/28 06:28:42;;;;;;;;;;;;;;;8.57;51.27;100057.70;109597;1254;72770;-71
2024/02/28 06:31:14;;;;;;;;;;;;;;;8.76;50.84;100057.74;109597;1254;60969;-71
2024/02/28 06:33:42;;;;;;;;;;;;;;;8.93;50.49;100064.77;109347;1253;58607;-71
2024/02/28 06:36:09;;;;;;;;;;;;;;;8.87;50.56;100063.42;109527;1252;73256;-72
2024/02/28 06:38:37;;;;;;;;;;;;;;;9.24;49.66;100072.30;109588;1254;67546;-71
2024/02/28 06:41:05;;;;;;;;;;;;;;;9.33;49.43;100076.48;109614;1253;71430;-71
2024/02/28 06:43:33;;;;;;;;;;;;;;;9.24;49.21;100070.70;109464;1254;60922;-70
2024/02/28 06:46:00;;;;;;;;;;;;;;;9.49;48.85;100077.43;109588;1252;58584;-71
2024/02/28 06:48:28;;;;;;;;;;;;;;;9.44;48.64;100082.05;109576;1253;72645;-71
2024/02/28 06:50:57;;;;;;;;;;;;;;;9.65;48.36;100085.46;109634;1252;68812;-71
2024/02/28 06:53:26;;;;;;;;;;;;;;;9.66;47.97;100082.98;109171;1257;72735;-71
2024/02/28 06:55:53;;;;;;;;;;;;;;;9.66;47.98;100086.48;109267;1256;58569;-70
2024/02/28 06:58:21;;;;;;;;;;;;;;;9.62;47.91;100089.85;109266;1257;59835;-69
2024/02/28 07:00:48;;;;;;;;;;;;;;;9.82;47.51;100091.51;109068;1255;74205;-71
2024/02/28 07:03:21;;;;;;;;;;;;;;;9.80;47.37;100088.37;109279;1256;67527;-70
2024/02/28 07:05:48;;;;;;;;;;;;;;;9.82;47.46;100091.92;109237;1257;71463;-71
2024/02/28 07:08:16;;;;;;;;;;;;;;;10.18;46.96;100096.59;109233;1256;58466;-71
2024/02/28 07:10:47;;;;;;;;;;;;;;;10.32;46.73;100094.04;109306;1256;59963;-70
2024/02/28 07:13:15;;;;;;;;;;;;;;;10.76;46.22;100100.89;109258;1257;73008;-71
2024/02/28 07:15:43;;;;;;;;;;;;;;;10.62;45.89;100099.28;109225;1255;69059;-71
2024/02/28 07:18:11;;;;;;;;;;;;;;;10.68;46.01;100103.05;109193;1256;71454;-71
2024/02/28 07:20:39;;;;;;;;;;;;;;;10.82;45.63;100098.08;109267;1256;59337;-71
2024/02/28 07:23:06;;;;;;;;;;;;;;;10.99;45.30;100097.80;109206;1257;59865;-71
2024/02/28 07:25:34;;;;;;;;;;;;;;;11.06;45.11;100099.90;109580;1253;73953;-71
2024/02/28 07:28:02;;;;;;;;;;;;;;;11.25;44.80;100102.04;109560;1254;68519;-71
2024/02/28 07:30:30;;;;;;;;;;;;;;;11.17;44.47;100104.10;109566;1253;70980;-70
2024/02/28 07:32:58;;;;;;;;;;;;;;;11.34;44.38;100107.80;109584;1254;58089;-71
2024/02/28 07:35:25;;;;;;;;;;;;;;;11.19;44.56;100103.92;109585;1252;60032;-71
2024/02/28 07:37:53;;;;;;;;;;;;;;;11.42;44.28;100102.60;109582;1253;72035;-70
2024/02/28 07:40:20;;;;;;;;;;;;;;;11.39;44.79;100111.97;109593;1254;68809;-71
2024/02/28 07:42:48;;;;;;;;;;;;;;;11.65;44.21;100104.34;109574;1253;71488;-71
2024/02/28 07:45:15;;;;;;;;;;;;;;;11.75;44.19;100110.89;109593;1254;58167;-71
2024/02/28 07:47:43;;;;;;;;;;;;;;;11.52;44.24;100106.80;109578;1254;59462;-71
2024/02/28 07:50:10;;;;;;;;;;;;;;;11.80;43.99;100110.05;109342;1254;72933;-71
2024/02/28 07:52:38;;;;;;;;;;;;;;;11.39;44.61;100111.70;109557;1253;68683;-71
2024/02/28 07:55:06;;;;;;;;;;;;;;;11.66;44.12;100112.75;109542;1254;71525;-71
2024/02/28 07:57:33;;;;;;;;;;;;;;;11.71;44.01;100115.84;109307;1252;59353;-71
2024/02/28 08:00:01;;;;;;;;;;;;;;;12.00;43.54;100114.27;109437;1255;58488;-71
2024/02/28 08:02:39;;;;;;;;;;;;;;;12.06;43.44;100105.51;109282;1256;74256;-72
2024/02/28 08:05:07;;;;;;;;;;;;;;;12.27;43.38;100117.98;109226;1257;67687;-71
2024/02/28 08:07:35;;;;;;;;;;;;;;;12.93;42.41;100111.36;109132;1257;72885;-71
2024/02/28 08:10:05;;;;;;;;;;;;;;;12.94;41.99;100113.15;109155;1256;58172;-71
2024/02/28 08:12:32;;;;;;;;;;;;;;;13.17;41.85;100114.39;109203;1255;58599;-71
2024/02/28 08:15:00;;;;;;;;;;;;;;;13.19;41.79;100111.44;109232;1257;73966;-71
2024/02/28 08:17:28;;;;;;;;;;;;;;;13.11;41.99;100114.85;109154;1257;69535;-71
2024/02/28 08:19:55;;;;;;;;;;;;;;;13.22;41.50;100113.65;109172;1255;72740;-71
2024/02/28 08:22:24;;;;;;;;;;;;;;;13.04;41.66;100113.24;109203;1257;58837;-71
2024/02/28 08:24:52;;;;;;;;;;;;;;;12.71;42.13;100111.96;109199;1256;59896;-71
2024/02/28 08:27:20;;;;;;;;;;;;;;;12.54;42.55;100108.88;109225;1257;74053;-70
2024/02/28 08:29:48;;;;;;;;;;;;;;;13.06;41.73;100109.27;109063;1255;186236;-71
2024/02/28 08:32:16;;;;;;;;;;;;;;;13.26;41.45;100104.44;109319;1254;72751;-71
2024/02/28 08:34:45;;;;;;;;;;;;;;;13.74;41.11;100106.38;109283;1254;59009;-70
2024/02/28 08:37:13;;;;;;;;;;;;;;;14.09;40.05;100106.84;109477;1254;60022;-70
2024/02/28 08:39:40;;;;;;;;;;;;;;;14.09;39.84;100104.03;109487;1254;73943;-70
2024/02/28 08:42:08;;;;;;;;;;;;;;;13.80;40.07;100100.48;109456;1254;68670;-70
2024/02/28 08:44:36;;;;;;;;;;;;;;;13.79;40.33;100098.48;109365;1254;71608;-71
2024/02/28 08:47:04;;;;;;;;;;;;;;;13.81;40.22;100099.63;109413;1254;58851;-71
2024/02/28 08:49:31;;;;;;;;;;;;;;;13.54;40.46;100093.33;109427;1254;58751;-70
2024/02/28 08:51:59;;;;;;;;;;;;;;;13.42;40.65;100089.77;109474;1254;73928;-70
2024/02/28 08:54:27;;;;;;;;;;;;;;;12.99;41.28;100082.42;109444;1254;68671;-71
2024/02/28 08:56:54;;;;;;;;;;;;;;;13.62;40.66;100089.21;109449;1254;72734;-70
2024/02/28 08:59:29;;;;;;;;;;;;;;;13.56;40.36;100092.84;109210;1254;60217;-70
2024/02/28 09:01:57;;;;;;;;;;;;;;;13.90;40.23;100092.86;109421;1253;59128;-71
2024/02/28 09:04:25;;;;;;;;;;;;;;;14.37;39.49;100095.43;109497;1253;73936;-70
2024/02/28 09:06:55;;;;;;;;;;;;;;;14.70;38.99;100096.40;109425;1254;67891;-70
2024/02/28 09:09:23;;;;;;;;;;;;;;;14.62;38.60;100100.22;109469;1254;71768;-70
2024/02/28 09:11:50;;;;;;;;;;;;;;;14.70;38.48;100097.32;109462;1254;58864;-71
2024/02/28 09:14:18;;;;;;;;;;;;;;;14.74;38.34;100099.59;109473;1254;59887;-71
2024/02/28 09:16:45;;;;;;;;;;;;;;;14.76;38.04;100092.31;109494;1258;74001;-70
2024/02/28 09:19:13;;;;;;;;;;;;;;;14.81;37.98;100100.92;109550;1254;68844;-70
2024/02/28 09:21:40;;;;;;;;;;;;;;;14.86;37.85;100093.40;109604;1253;72768;-70
2024/02/28 09:24:08;;;;;;;;;;;;;;;15.08;37.87;100104.17;109568;1254;60162;-71
2024/02/28 09:26:38;;;;;;;;;;;;;;;15.40;37.24;100106.80;109221;1253;60066;-70
2024/02/28 09:29:06;;;;;;;;;;;;;;;15.63;36.83;100099.43;109618;1253;73887;-70
2024/02/28 09:31:33;;;;;;;;;;;;;;;15.39;36.96;100105.35;109610;1253;68713;-70
2024/02/28 09:34:06;;;;;;;;;;;;;;;15.57;36.94;100103.77;109655;1253;71422;-70
2024/02/28 09:36:40;;;;;;;;;;;;;;;15.38;36.97;100105.47;109683;1254;58827;-70
2024/02/28 09:39:08;;;;;;;;;;;;;;;15.16;37.39;100102.67;109661;1253;58221;-71
2024/02/28 09:41:36;;;;;;;;;;;;;;;15.37;37.12;100107.25;109637;1253;72640;-70
2024/02/28 09:44:03;;;;;;;;;;;;;;;15.35;37.18;100105.04;109602;1254;67367;-70
2024/02/28 09:46:31;;;;;;;;;;;;;;;15.44;37.22;100104.76;109508;1254;71823;-70
2024/02/28 09:48:58;;;;;;;;;;;;;;;15.70;36.75;100102.67;109581;1254;60359;-70
2024/02/28 09:51:27;;;;;;;;;;;;;;;15.94;36.42;100097.36;109488;1254;58925;-70
2024/02/28 09:53:56;;;;;;;;;;;;;;;15.66;36.52;100096.62;109289;1257;73929;-70
2024/02/28 09:56:24;;;;;;;;;;;;;;;15.49;37.04;100103.50;109194;1256;67887;-70
2024/02/28 09:58:51;;;;;;;;;;;;;;;15.92;36.55;100103.02;109153;1257;70467;-70
2024/02/28 10:01:19;;;;;;;;;;;;;;;15.99;36.36;100097.13;109160;1257;58656;-69
2024/02/28 10:03:46;;;;;;;;;;;;;;;15.77;36.09;100092.98;109214;1255;58597;-70
2024/02/28 10:06:15;;;;;;;;;;;;;;;15.84;36.40;100093.92;109142;1255;72356;-71
2024/02/28 10:08:47;;;;;;;;;;;;;;;15.76;36.45;100094.39;109204;1256;67753;-70
2024/02/28 10:11:21;;;;;;;;;;;;;;;15.79;36.41;100100.77;109187;1257;72801;-70
2024/02/28 10:13:48;;;;;;;;;;;;;;;15.79;36.47;100097.95;109139;1256;58154;-70
2024/02/28 10:16:16;;;;;;;;;;;;;;;15.58;36.40;100094.67;109182;1257;59886;-70
2024/02/28 10:18:44;;;;;;;;;;;;;;;15.73;36.94;100093.73;109216;1255;73956;-70
2024/02/28 10:21:15;;;;;;;;;;;;;;;16.02;36.32;100088.30;109270;1257;68983;-70
2024/02/28 10:23:42;;;;;;;;;;;;;;;16.20;35.95;100079.02;109153;1257;71952;-69
2024/02/28 10:26:10;;;;;;;;;;;;;;;15.98;36.01;100076.99;109269;1255;58877;-69
2024/02/28 10:28:39;;;;;;;;;;;;;;;15.73;36.42;100077.39;109216;1255;59877;-69
2024/02/28 10:31:07;;;;;;;;;;;;;;;15.32;37.10;100074.75;109309;1253;73914;-71
2024/02/28 10:33:35;;;;;;;;;;;;;;;15.59;37.10;100070.44;109559;1253;67401;-70
2024/02/28 10:36:04;;;;;;;;;;;;;;;15.73;36.34;100071.66;109352;1253;71787;-70
2024/02/28 10:38:36;;;;;;;;;;;;;;;15.79;36.33;100069.86;109588;1254;59012;-70
2024/02/28 10:41:03;;;;;;;;;;;;;;;15.83;36.20;100064.01;109598;1252;58591;-71
2024/02/28 10:43:31;;;;;;;;;;;;;;;16.17;35.99;100067.16;109363;1253;73093;-70
2024/02/28 10:45:59;;;;;;;;;;;;;;;16.28;36.47;100064.45;109579;1253;68808;-70
2024/02/28 10:48:46;;;;;;;;;;;;;;;16.43;35.49;100057.17;109571;1253;72787;-70
2024/02/28 10:51:15;;;;;;;;;;;;;;;16.22;35.56;100062.11;109541;1254;58842;-71
2024/02/28 10:53:42;;;;;;;;;;;;;;;16.42;35.87;100063.89;109644;1253;58569;-70
2024/02/28 10:56:11;;;;;;;;;;;;;;;16.60;35.23;100066.87;109189;1253;74003;-70
2024/02/28 10:58:43;;;;;;;;;;;;;;;16.66;35.21;100068.73;109390;1254;67254;-70
2024/02/28 11:01:10;;;;;;;;;;;;;;;16.54;35.54;100060.02;109472;1254;71431;-70
2024/02/28 11:03:38;;;;;;;;;;;;;;;16.68;34.91;100062.22;109414;1254;58831;-70
2024/02/28 11:06:15;;;;;;;;;;;;;;;16.41;35.24;100062.81;109207;1257;60079;-70
2024/02/28 11:08:45;;;;;;;;;;;;;;;16.41;35.57;100057.07;109498;1253;72675;-71
2024/02/28 11:11:13;;;;;;;;;;;;;;;16.39;35.55;100056.33;109603;1252;67699;-70
2024/02/28 11:13:41;;;;;;;;;;;;;;;16.41;35.45;100052.42;109586;1252;72661;-70
2024/02/28 11:16:08;;;;;;;;;;;;;;;16.46;35.47;100052.70;109166;1256;58859;-70
2024/02/28 11:18:36;;;;;;;;;;;;;;;16.56;35.74;100049.27;109193;1257;58333;-69
2024/02/28 11:21:04;;;;;;;;;;;;;;;16.63;35.84;100042.08;109170;1256;72814;-71
2024/02/28 11:23:37;;;;;;;;;;;;;;;16.69;35.75;100044.43;108959;1259;67612;-70
2024/02/28 11:26:04;;;;;;;;;;;;;;;16.89;35.69;100044.79;108953;1260;72497;-70
2024/02/28 11:28:32;;;;;;;;;;;;;;;16.58;36.10;100042.44;108984;1259;58864;-71
2024/02/28 11:30:59;;;;;;;;;;;;;;;16.64;35.98;100036.88;108921;1259;59871;-71
2024/02/28 11:33:27;;;;;;;;;;;;;;;16.58;35.87;100033.34;108965;1259;74023;-71
2024/02/28 11:35:56;;;;;;;;;;;;;;;16.33;36.13;100038.05;108960;1259;68831;-71
2024/02/28 11:38:26;;;;;;;;;;;;;;;16.86;36.20;100030.59;108951;1260;72738;-70
2024/02/28 11:40:55;;;;;;;;;;;;;;;17.00;35.65;100026.96;108996;1260;60164;-71
2024/02/28 11:43:22;;;;;;;;;;;;;;;16.96;35.40;100024.29;108968;1259;59955;-70
2024/02/28 11:45:55;;;;;;;;;;;;;;;16.97;35.62;100025.05;108988;1260;72678;-70
2024/02/28 11:48:22;;;;;;;;;;;;;;;16.49;35.88;100012.54;109168;1257;67428;-71
2024/02/28 11:50:50;;;;;;;;;;;;;;;16.40;36.35;100005.01;109132;1256;72775;-71
2024/02/28 11:53:18;;;;;;;;;;;;;;;16.42;36.75;100008.41;109122;1257;60126;-70
2024/02/28 11:55:47;;;;;;;;;;;;;;;16.31;36.38;100001.55;109132;1256;60034;-70
2024/02/28 11:58:15;;;;;;;;;;;;;;;16.37;36.59;100003.30;109138;1256;73933;-70
2024/02/28 12:00:46;;;;;;;;;;;;;;;16.33;36.64;100003.97;109222;1253;67368;-69
2024/02/28 12:03:14;;;;;;;;;;;;;;;16.69;36.01;100007.55;109656;1252;71444;-71
2024/02/28 12:05:42;;;;;;;;;;;;;;;16.71;35.95;100006.59;109508;1253;58261;-71
2024/02/28 12:08:10;;;;;;;;;;;;;;;16.66;35.90;100002.98;109631;1252;59065;-70
2024/02/28 12:10:38;;;;;;;;;;;;;;;16.37;36.17;99997.70;109626;1253;72966;-70
2024/02/28 12:13:07;;;;;;;;;;;;;;;16.97;35.97;100004.27;109513;1253;67455;-69
2024/02/28 12:15:35;;;;;;;;;;;;;;;17.13;35.74;100006.34;109481;1252;72721;-71
2024/02/28 12:18:10;;;;;;;;;;;;;;;16.75;35.49;100000.80;109312;1256;58966;-71
2024/02/28 12:20:37;;;;;;;;;;;;;;;16.74;36.23;100001.84;109164;1257;60020;-70
2024/02/28 12:23:05;;;;;;;;;;;;;;;16.91;35.81;99995.05;109184;1256;72709;-70
2024/02/28 12:25:32;;;;;;;;;;;;;;;17.19;35.63;99993.64;109141;1256;68825;-71
2024/02/28 12:28:00;;;;;;;;;;;;;;;17.31;35.38;99987.44;109282;1256;72730;-70
2024/02/28 12:30:28;;;;;;;;;;;;;;;16.93;35.64;99978.86;109174;1256;58996;-70
2024/02/28 12:32:56;;;;;;;;;;;;;;;16.74;35.69;99980.31;109188;1256;59926;-70
2024/02/28 12:35:23;;;;;;;;;;;;;;;16.48;36.27;99980.29;109215;1257;73279;-69
2024/02/28 12:37:51;;;;;;;;;;;;;;;16.73;35.91;99973.77;109194;1256;67537;-68
2024/02/28 12:40:18;;;;;;;;;;;;;;;16.41;36.39;99967.13;109165;1256;71509;-70